createdAt,value
2019-06-10T00:00:13.547Z,96101.97
2019-06-10T00:02:36.382Z,96098.45
2019-06-10T00:05:07.293Z,96102.20
2019-06-10T00:07:33.668Z,96099.52
2019-06-10T00:10:01.101Z,96089.83
2019-06-10T00:12:28.170Z,96089.83
2019-06-10T00:14:54.447Z,96094.36
2019-06-10T00:17:21.358Z,96087.37
2019-06-10T00:19:47.863Z,96081.16
2019-06-10T00:22:14.094Z,96086.53
2019-06-10T00:24:40.912Z,96074.16
2019-06-10T00:27:09.360Z,96072.73
2019-06-10T00:29:36.401Z,96070.27
2019-06-10T00:32:05.357Z,96074.61
2019-06-10T00:34:31.608Z,96070.04
2019-06-10T00:36:59.653Z,96060.58
2019-06-10T00:39:27.126Z,96058.95
2019-06-10T00:41:53.330Z,96060.58
2019-06-10T00:44:20.629Z,96042.84
2019-06-10T00:46:46.940Z,96033.12
2019-06-10T00:49:14.735Z,96035.58
2019-06-10T00:51:41.511Z,96038.04
2019-06-10T00:54:08.603Z,96029.98
2019-06-10T00:56:35.971Z,96038.04
2019-06-10T00:59:03.750Z,96038.49
2019-06-10T01:01:31.333Z,96047.38
2019-06-10T01:03:57.687Z,96047.60
2019-06-10T01:06:23.894Z,96046.32
2019-06-10T01:08:51.260Z,96043.64
2019-06-10T01:11:23.910Z,96042.39
2019-06-10T01:13:45.706Z,96038.88
2019-06-10T01:16:12.611Z,96038.88
2019-06-10T01:18:41.621Z,96038.64
2019-06-10T01:21:07.972Z,96029.75
2019-06-10T01:23:34.232Z,96026.27
2019-06-10T01:26:01.732Z,96028.95
2019-06-10T01:28:27.976Z,96016.55
2019-06-10T01:30:54.243Z,96026.72
2019-06-10T01:33:21.256Z,96013.52
2019-06-10T01:35:47.521Z,96011.64
2019-06-10T01:38:16.270Z,96000.89
2019-06-10T01:40:42.407Z,95989.92
2019-06-10T01:43:08.730Z,95988.07
2019-06-10T01:45:34.928Z,95990.16
2019-06-10T01:48:01.498Z,95989.58
2019-06-10T01:50:27.727Z,95983.84
2019-06-10T01:52:53.790Z,95984.06
2019-06-10T01:55:21.874Z,95980.55
2019-06-10T01:57:48.128Z,95982.44
2019-06-10T02:00:22.090Z,95979.52
2019-06-10T02:02:44.973Z,95977.41
2019-06-10T02:05:14.633Z,95970.41
2019-06-10T02:07:40.978Z,95972.04
2019-06-10T02:10:07.460Z,95958.61
2019-06-10T02:12:33.755Z,95957.81
2019-06-10T02:15:01.767Z,95957.81
2019-06-10T02:17:31.047Z,95947.30
2019-06-10T02:19:56.700Z,95953.70
2019-06-10T02:22:24.342Z,95956.98
2019-06-10T02:24:50.808Z,95948.09
2019-06-10T02:27:17.441Z,95952.45
2019-06-10T02:29:43.712Z,95939.25
2019-06-10T02:32:14.585Z,95938.87
2019-06-10T02:34:50.720Z,95947.98
2019-06-10T02:37:06.029Z,95945.75
2019-06-10T02:39:38.288Z,95947.00
2019-06-10T02:42:04.441Z,95944.55
2019-06-10T02:44:34.326Z,95940.44
2019-06-10T02:46:58.721Z,95948.94
2019-06-10T02:49:46.312Z,95943.57
2019-06-10T02:51:53.741Z,95945.45
2019-06-10T02:54:22.995Z,95949.17
2019-06-10T02:56:48.375Z,95949.62
2019-06-10T02:59:16.161Z,95948.22
2019-06-10T03:01:43.991Z,95940.02
2019-06-10T03:04:13.719Z,95937.55
2019-06-10T03:06:40.151Z,95949.19
2019-06-10T03:09:06.874Z,95936.45
2019-06-10T03:11:36.976Z,95939.81
2019-06-10T03:14:02.601Z,95944.83
2019-06-10T03:16:37.201Z,95935.34
2019-06-10T03:19:03.461Z,95936.17
2019-06-10T03:21:29.624Z,95932.44
2019-06-10T03:23:55.734Z,95926.27
2019-06-10T03:26:24.034Z,95924.61
2019-06-10T03:28:52.033Z,95925.67
2019-06-10T03:31:20.522Z,95926.72
2019-06-10T03:33:47.930Z,95943.84
2019-06-10T03:36:14.544Z,95948.19
2019-06-10T03:38:42.973Z,95943.27
2019-06-10T03:41:08.951Z,95938.92
2019-06-10T03:43:35.143Z,95930.87
2019-06-10T03:46:03.172Z,95936.02
2019-06-10T03:48:29.370Z,95934.16
2019-06-10T03:50:55.440Z,95942.81
2019-06-10T03:53:23.986Z,95937.00
2019-06-10T03:55:49.723Z,95930.58
2019-06-10T03:58:17.353Z,95930.13
2019-06-10T04:00:44.910Z,95943.92
2019-06-10T04:03:12.158Z,95935.66
2019-06-10T04:05:38.384Z,95936.23
2019-06-10T04:08:04.682Z,95937.44
2019-06-10T04:10:32.479Z,95938.91
2019-06-10T04:12:58.769Z,95948.84
2019-06-10T04:15:27.759Z,95943.83
2019-06-10T04:17:53.180Z,95939.06
2019-06-10T04:20:19.814Z,95933.47
2019-06-10T04:22:46.063Z,95942.12
2019-06-10T04:25:12.418Z,95936.38
2019-06-10T04:27:38.482Z,95924.70
2019-06-10T04:30:06.733Z,95930.73
2019-06-10T04:32:32.811Z,95920.45
2019-06-10T04:34:58.978Z,95918.80
2019-06-10T04:37:27.398Z,95905.38
2019-06-10T04:39:53.199Z,95908.06
2019-06-10T04:42:20.318Z,95905.98
2019-06-10T04:44:47.314Z,95903.08
2019-06-10T04:47:13.421Z,95902.85
2019-06-10T04:49:39.620Z,95906.14
2019-06-10T04:52:06.909Z,95910.22
2019-06-10T04:54:33.413Z,95909.55
2019-06-10T04:57:02.135Z,95907.58
2019-06-10T04:59:30.076Z,95910.41
2019-06-10T05:01:55.875Z,95905.99
2019-06-10T05:04:24.070Z,95904.73
2019-06-10T05:06:52.550Z,95902.05
2019-06-10T05:09:19.088Z,95897.25
2019-06-10T05:11:45.326Z,95898.45
2019-06-10T05:14:13.225Z,95905.37
2019-06-10T05:16:39.610Z,95911.48
2019-06-10T05:19:05.813Z,95912.19
2019-06-10T05:21:33.703Z,95906.36
2019-06-10T05:24:00.000Z,95904.61
2019-06-10T05:26:27.662Z,95915.63
2019-06-10T05:28:54.138Z,95917.95
2019-06-10T05:31:20.273Z,95915.05
2019-06-10T05:33:46.454Z,95917.50
2019-06-10T05:36:13.171Z,95922.41
2019-06-10T05:38:39.699Z,95919.85
2019-06-10T05:41:05.758Z,95916.34
2019-06-10T05:43:34.321Z,95918.22
2019-06-10T05:46:02.582Z,95909.94
2019-06-10T05:48:28.334Z,95910.28
2019-06-10T05:51:02.638Z,95898.82
2019-06-10T05:53:24.499Z,95901.32
2019-06-10T05:55:52.844Z,95895.20
2019-06-10T05:58:18.797Z,95904.89
2019-06-10T06:00:45.003Z,95890.81
2019-06-10T06:03:12.072Z,95887.23
2019-06-10T06:05:38.373Z,95886.36
2019-06-10T06:08:08.562Z,95890.39
2019-06-10T06:10:35.531Z,95898.48
2019-06-10T06:13:03.089Z,95899.00
2019-06-10T06:15:29.638Z,95898.82
2019-06-10T06:18:09.149Z,95895.05
2019-06-10T06:20:25.051Z,95901.36
2019-06-10T06:22:52.259Z,95905.83
2019-06-10T06:25:18.713Z,95897.00
2019-06-10T06:27:45.413Z,95903.05
2019-06-10T06:30:18.418Z,95901.16
2019-06-10T06:32:43.552Z,95903.71
2019-06-10T06:35:12.629Z,95900.37
2019-06-10T06:37:39.684Z,95902.49
2019-06-10T06:40:07.402Z,95909.20
2019-06-10T06:42:35.056Z,95901.24
2019-06-10T06:45:03.053Z,95897.80
2019-06-10T06:47:29.798Z,95905.48
2019-06-10T06:49:56.072Z,95911.70
2019-06-10T06:52:46.597Z,95921.98
2019-06-10T06:54:53.054Z,95916.67
2019-06-10T06:57:19.319Z,95915.87
2019-06-10T06:59:45.518Z,95910.48
2019-06-10T07:02:12.423Z,95918.08
2019-06-10T07:04:40.546Z,95917.59
2019-06-10T07:07:07.288Z,95922.25
2019-06-10T07:09:35.902Z,95917.17
2019-06-10T07:12:03.604Z,95912.36
2019-06-10T07:14:35.250Z,95916.44
2019-06-10T07:16:59.908Z,95909.55
2019-06-10T07:19:26.069Z,95901.45
2019-06-10T07:22:08.649Z,95906.52
2019-06-10T07:24:20.283Z,95901.00
2019-06-10T07:26:52.214Z,95897.02
2019-06-10T07:29:14.600Z,95900.51
2019-06-10T07:31:43.918Z,95904.40
2019-06-10T07:34:08.823Z,95889.36
2019-06-10T07:36:35.686Z,95888.67
2019-06-10T07:39:05.439Z,95880.52
2019-06-10T07:41:32.783Z,95879.03
2019-06-10T07:43:59.682Z,95874.59
2019-06-10T07:46:25.740Z,95871.20
2019-06-10T07:48:56.188Z,95875.34
2019-06-10T07:51:22.349Z,95873.22
2019-06-10T07:53:47.927Z,95870.06
2019-06-10T07:56:13.989Z,95868.59
2019-06-10T07:58:44.416Z,95861.68
2019-06-10T08:01:08.618Z,95863.69
2019-06-10T08:03:35.337Z,95863.29
2019-06-10T08:06:03.743Z,95863.45
2019-06-10T08:08:29.986Z,95863.86
2019-06-10T08:10:56.076Z,95861.84
2019-06-10T08:13:22.698Z,95863.82
2019-06-10T08:15:48.980Z,95865.78
2019-06-10T08:18:15.280Z,95868.66
2019-06-10T08:20:45.366Z,95871.66
2019-06-10T08:23:14.463Z,95866.59
2019-06-10T08:25:43.767Z,95872.95
2019-06-10T08:28:08.713Z,95875.71
2019-06-10T08:30:35.687Z,95868.77
2019-06-10T08:33:03.358Z,95869.89
2019-06-10T08:35:41.465Z,95869.92
2019-06-10T08:37:57.856Z,95865.90
2019-06-10T08:40:24.055Z,95862.37
2019-06-10T08:42:50.553Z,95880.52
2019-06-10T08:45:16.841Z,95896.23
2019-06-10T09:29:13.582Z,95905.48
2019-06-10T09:31:41.612Z,95900.30
2019-06-10T09:34:08.284Z,95901.33
2019-06-10T09:36:34.488Z,95901.84
2019-06-10T09:39:03.740Z,95901.32
2019-06-10T09:41:39.385Z,95911.06
2019-06-10T09:43:59.947Z,95907.26
2019-06-10T09:46:29.293Z,95914.55
2019-06-10T09:49:02.134Z,95915.12
2019-06-10T09:51:28.563Z,95909.71
2019-06-10T09:54:03.166Z,95916.73
2019-06-10T09:56:26.588Z,95914.28
2019-06-10T09:58:55.240Z,95917.52
2019-06-10T10:01:24.539Z,95916.99
2019-06-10T10:03:59.408Z,95912.67
2019-06-10T10:06:23.764Z,95909.70
2019-06-10T10:08:57.544Z,95903.20
2019-06-10T10:11:18.210Z,95917.78
2019-06-10T10:13:47.406Z,95912.45
2019-06-10T10:16:13.184Z,95917.47
2019-06-10T10:18:40.125Z,95918.13
2019-06-10T10:21:06.483Z,95922.81
2019-06-10T10:23:50.090Z,95931.20
2019-06-10T10:26:03.567Z,95927.14
2019-06-10T10:28:33.420Z,95931.48
2019-06-10T10:30:59.403Z,95919.54
2019-06-10T10:33:29.880Z,95917.06
2019-06-10T10:35:56.108Z,95914.31
2019-06-10T10:38:28.216Z,95898.50
2019-06-10T10:40:58.987Z,95892.50
2019-06-10T10:43:32.720Z,95894.88
2019-06-10T10:46:00.118Z,95890.58
2019-06-10T10:48:22.616Z,95889.48
2019-06-10T10:50:49.237Z,95883.50
2019-06-10T10:53:15.460Z,95891.08
2019-06-10T10:55:42.529Z,95873.67
2019-06-10T10:58:12.752Z,95858.97
2019-06-10T11:00:41.714Z,95855.10
2019-06-10T11:03:13.373Z,95858.79
2019-06-10T11:05:41.351Z,95854.88
2019-06-10T11:08:08.811Z,95842.27
2019-06-10T11:10:35.450Z,95840.55
2019-06-10T11:13:04.640Z,95834.44
2019-06-10T11:15:33.799Z,95826.65
2019-06-10T11:17:59.431Z,95816.23
2019-06-10T11:20:25.983Z,95818.75
2019-06-10T11:22:53.616Z,95812.87
2019-06-10T11:25:19.892Z,95810.89
2019-06-10T11:27:46.396Z,95811.81
2019-06-10T11:30:13.032Z,95812.93
2019-06-10T11:32:39.110Z,95821.83
2019-06-10T11:35:06.027Z,95823.56
2019-06-10T11:37:32.234Z,95826.36
2019-06-10T11:39:58.378Z,95815.94
2019-06-10T11:42:24.443Z,95810.34
2019-06-10T11:44:57.393Z,95807.33
2019-06-10T11:47:22.829Z,95801.28
2019-06-10T11:49:48.993Z,95796.09
2019-06-10T11:52:15.146Z,95800.25
2019-06-10T11:54:53.751Z,95795.34
2019-06-10T11:57:09.277Z,95801.93
2019-06-10T11:59:35.443Z,95791.29
2019-06-10T12:02:05.845Z,95790.92
2019-06-10T12:04:30.635Z,95785.80
2019-06-10T12:06:57.390Z,95780.94
2019-06-10T12:09:24.155Z,95779.93
2019-06-10T12:11:54.270Z,95775.52
2019-06-10T12:14:19.463Z,95776.81
2019-06-10T12:19:13.970Z,95772.09
2019-06-10T12:21:43.218Z,95772.30
2019-06-10T12:24:09.048Z,95759.56
2019-06-10T12:26:36.692Z,95748.37
2019-06-10T12:29:05.780Z,95734.05
2019-06-10T12:31:34.504Z,95722.05
2019-06-10T12:34:02.296Z,95722.09
2019-06-10T12:36:28.780Z,95723.27
2019-06-10T12:38:59.692Z,95730.77
2019-06-10T12:41:23.656Z,95731.75
2019-06-10T12:43:50.020Z,95724.98
2019-06-10T12:46:18.159Z,95712.26
2019-06-10T12:48:45.303Z,95717.06
2019-06-10T12:51:13.582Z,95710.45
2019-06-10T12:53:39.586Z,95712.40
2019-06-10T12:56:10.657Z,95711.16
2019-06-10T12:58:33.856Z,95713.44
2019-06-10T13:01:01.234Z,95715.78
2019-06-10T13:03:28.337Z,95716.27
2019-06-10T13:05:57.748Z,95708.65
2019-06-10T13:08:26.737Z,95705.27
2019-06-10T13:10:53.441Z,95700.93
2019-06-10T13:13:19.698Z,95699.45
2019-06-10T13:15:45.888Z,95702.70
2019-06-10T13:18:18.963Z,95706.48
2019-06-10T13:20:43.066Z,95692.14
2019-06-10T13:23:22.475Z,95689.48
2019-06-10T13:25:50.347Z,95685.36
2019-06-10T13:28:06.751Z,95685.25
2019-06-10T13:30:34.295Z,95678.23
2019-06-10T13:33:02.387Z,95665.33
2019-06-10T13:35:28.678Z,95666.64
2019-06-10T13:37:54.836Z,95662.70
2019-06-10T13:40:22.703Z,95661.59
2019-06-10T13:42:48.953Z,95647.80
2019-06-10T13:45:15.437Z,95657.79
2019-06-10T13:47:43.000Z,95643.56
2019-06-10T13:50:13.697Z,95648.09
2019-06-10T13:52:38.341Z,95641.27
2019-06-10T13:55:08.823Z,95636.00
2019-06-10T13:57:34.437Z,95629.70
2019-06-10T14:00:04.269Z,95625.47
2019-06-10T14:02:28.975Z,95629.86
2019-06-10T14:04:55.134Z,95616.67
2019-06-10T14:07:23.401Z,95616.67
2019-06-10T14:09:49.397Z,95614.52
2019-06-10T14:12:17.593Z,95608.77
2019-06-10T14:14:44.000Z,95609.28
2019-06-10T14:17:15.897Z,95597.13
2019-06-10T14:19:38.282Z,95603.49
2019-06-10T14:22:07.593Z,95608.98
2019-06-10T14:24:33.717Z,95603.73
2019-06-10T14:27:00.152Z,95605.19
2019-06-10T14:29:26.537Z,95605.86
2019-06-10T14:31:53.260Z,95606.38
2019-06-10T14:34:22.317Z,95607.56
2019-06-10T14:36:47.669Z,95603.94
2019-06-10T14:39:15.621Z,95603.02
2019-06-10T14:41:43.044Z,95595.80
2019-06-10T14:44:10.690Z,95589.70
2019-06-10T14:46:37.304Z,95587.32
2019-06-10T14:49:04.680Z,95585.14
2019-06-10T14:51:32.576Z,95585.16
2019-06-10T14:53:58.837Z,95592.91
2019-06-10T14:56:25.075Z,95575.76
2019-06-10T14:58:52.983Z,95575.76
2019-06-10T15:01:25.017Z,95573.64
2019-06-10T15:03:47.464Z,95568.52
2019-06-10T15:06:15.633Z,95562.23
2019-06-10T15:08:42.866Z,95574.16
2019-06-10T15:11:09.685Z,95556.38
2019-06-10T15:13:35.777Z,95557.98
2019-06-10T15:16:04.371Z,95555.43
2019-06-10T15:18:29.919Z,95556.59
2019-06-10T15:20:56.200Z,95556.53
2019-06-10T15:23:23.839Z,95536.47
2019-06-10T15:25:53.963Z,95528.35
2019-06-10T15:28:18.104Z,95531.05
2019-06-10T15:30:45.194Z,95527.69
2019-06-10T15:33:14.896Z,95526.50
2019-06-10T15:35:39.435Z,95524.63
2019-06-10T15:38:05.687Z,95522.20
2019-06-10T15:40:32.877Z,95522.44
2019-06-10T15:42:59.067Z,95521.36
2019-06-10T15:45:26.267Z,95524.79
2019-06-10T15:47:53.115Z,95531.59
2019-06-10T15:50:21.139Z,95517.95
2019-06-10T15:52:47.652Z,95518.93
2019-06-10T15:55:33.471Z,95502.58
2019-06-10T15:57:45.617Z,95517.89
2019-06-10T16:00:14.195Z,95519.06
2019-06-10T16:02:38.381Z,95512.90
2019-06-10T16:05:05.287Z,95516.11
2019-06-10T16:07:32.575Z,95503.22
2019-06-10T16:09:58.768Z,95510.65
2019-06-10T16:12:38.294Z,95503.30
2019-06-10T16:15:05.462Z,95503.98
2019-06-10T16:17:33.202Z,95499.78
2019-06-10T16:20:00.000Z,95502.09
2019-06-10T16:22:26.816Z,95503.84
2019-06-10T16:24:53.459Z,95507.86
2019-06-10T16:27:22.546Z,95506.45
2019-06-10T16:29:48.527Z,95502.92
2019-06-10T16:32:16.320Z,95512.50
2019-06-10T16:34:47.194Z,95513.31
2019-06-10T16:37:15.059Z,95512.56
2019-06-10T16:39:43.169Z,95508.51
2019-06-10T16:42:12.170Z,95515.11
2019-06-10T16:44:38.339Z,95525.53
2019-06-10T16:47:06.519Z,95531.90
2019-06-10T16:49:32.992Z,95529.63
2019-06-10T16:52:06.565Z,95540.00
2019-06-10T16:54:34.019Z,95548.74
2019-06-10T16:57:03.565Z,95559.63
2019-06-10T16:59:30.819Z,95575.28
2019-06-10T17:01:57.841Z,95579.98
2019-06-10T17:04:27.261Z,95590.13
2019-06-10T17:06:53.025Z,95587.52
2019-06-10T17:09:21.081Z,95581.79
2019-06-10T17:11:48.205Z,95575.56
2019-06-10T17:14:14.944Z,95574.22
2019-06-10T17:16:41.613Z,95563.68
2019-06-10T17:19:08.187Z,95554.07
2019-06-10T17:21:35.009Z,95534.87
2019-06-10T17:24:03.503Z,95528.95
2019-06-10T17:26:37.954Z,95512.23
2019-06-10T17:29:06.387Z,95509.52
2019-06-10T17:31:35.163Z,95509.73
2019-06-10T17:34:02.673Z,95504.87
2019-06-10T17:36:32.664Z,95508.46
2019-06-10T17:38:58.798Z,95517.31
2019-06-10T17:41:28.554Z,95521.15
2019-06-10T17:43:53.999Z,95523.97
2019-06-10T17:47:09.874Z,95526.77
2019-06-10T17:49:42.039Z,95543.80
2019-06-10T17:52:36.617Z,95531.67
2019-06-10T17:55:03.470Z,95514.09
2019-06-10T17:57:35.789Z,95505.50
2019-06-10T18:00:07.211Z,95518.66
2019-06-10T18:02:34.551Z,95517.45
2019-06-10T19:17:50.378Z,95603.74
2019-06-10T19:20:17.835Z,95608.88
2019-06-10T19:22:44.077Z,95598.85
2019-06-10T19:25:12.743Z,95592.89
2019-06-10T19:27:43.964Z,95588.45
2019-06-10T19:30:10.744Z,95584.98
2019-06-10T19:32:38.690Z,95618.64
2019-06-10T19:35:07.292Z,95634.63
2019-06-10T19:37:35.729Z,95632.51
2019-06-10T19:40:06.449Z,95610.14
2019-06-10T19:42:35.352Z,95585.77
2019-06-10T19:45:07.235Z,95587.28
2019-06-10T19:47:34.622Z,95580.63
2019-06-10T19:50:06.889Z,95565.20
2019-06-10T19:52:35.135Z,95566.83
2019-06-10T19:55:03.475Z,95552.59
2019-06-10T19:57:34.229Z,95551.07
2019-06-10T20:00:12.336Z,95539.19
2019-06-10T20:02:39.728Z,95544.31
2019-06-10T20:05:07.492Z,95535.80
2019-06-10T20:07:34.307Z,95533.30
2019-06-10T20:10:02.845Z,95527.72
2019-06-10T20:12:32.456Z,95526.92
2019-06-10T20:14:59.288Z,95525.27
2019-06-10T20:17:25.566Z,95515.84
2019-06-10T20:19:51.790Z,95515.38
2019-06-10T20:22:18.091Z,95507.48
2019-06-10T20:24:46.684Z,95514.00
2019-06-10T20:27:13.433Z,95529.48
2019-06-10T20:29:43.020Z,95532.37
2019-06-10T20:32:10.959Z,95528.98
2019-06-10T20:34:37.755Z,95536.41
2019-06-10T20:37:04.851Z,95533.39
2019-06-10T20:39:33.046Z,95540.83
2019-06-10T20:42:02.527Z,95542.11
2019-06-10T20:44:28.489Z,95528.84
2019-06-10T20:46:55.664Z,95520.11
2019-06-10T20:49:22.675Z,95507.55
2019-06-10T20:52:04.263Z,95495.91
2019-06-10T20:54:18.043Z,95475.39
2019-06-10T20:56:47.313Z,95474.56
2019-06-10T20:59:13.246Z,95482.97
2019-06-10T21:01:43.732Z,95499.60
2019-06-10T21:04:09.411Z,95534.64
2019-06-10T21:06:37.512Z,95571.11
2019-06-10T21:09:08.173Z,95576.47
2019-06-10T21:11:36.250Z,95572.51
2019-06-10T21:14:04.021Z,95553.53
2019-06-10T21:16:32.158Z,95553.53
2019-06-10T21:19:01.480Z,95546.33
2019-06-10T21:21:28.407Z,95550.26
2019-06-10T21:23:54.799Z,95564.93
2019-06-10T21:26:23.409Z,95565.98
2019-06-10T21:28:50.436Z,95557.42
2019-06-10T21:31:17.725Z,95550.67
2019-06-10T21:33:45.902Z,95546.38
2019-06-10T21:36:12.405Z,95556.25
2019-06-10T21:38:38.743Z,95562.44
2019-06-10T21:41:04.953Z,95568.59
2019-06-10T21:43:33.119Z,95573.15
2019-06-10T21:45:59.129Z,95568.14
2019-06-10T21:48:25.300Z,95570.02
2019-06-10T21:50:54.615Z,95571.59
2019-06-10T21:53:22.162Z,95563.27
2019-06-10T21:55:48.740Z,95551.60
2019-06-10T21:58:14.958Z,95552.92
2019-06-10T22:01:03.325Z,95546.89
2019-06-10T22:03:18.042Z,95548.09
2019-06-10T22:05:45.759Z,95542.07
2019-06-10T22:08:13.420Z,95540.22
2019-06-10T22:10:42.319Z,95547.30
2019-06-10T22:13:09.102Z,95552.84
2019-06-10T22:15:35.191Z,95559.03
2019-06-10T22:18:02.275Z,95562.06
2019-06-10T22:20:28.795Z,95562.06
2019-06-10T22:22:56.380Z,95554.80
2019-06-10T22:25:23.015Z,95547.89
2019-06-10T22:27:50.017Z,95513.77
2019-06-10T22:30:16.651Z,95551.36
2019-06-10T22:32:43.045Z,95547.00
2019-06-10T22:35:09.425Z,95546.17
2019-06-10T22:37:35.657Z,95546.17
2019-06-10T22:40:03.742Z,95545.56
2019-06-10T22:42:32.777Z,95541.27
2019-06-10T22:45:00.221Z,95525.88
2019-06-10T22:47:26.654Z,95563.17
2019-06-10T22:49:56.081Z,95509.67
2019-06-10T22:52:23.126Z,95509.67
2019-06-10T22:54:49.674Z,95516.73
2019-06-10T22:57:15.935Z,95496.69
2019-06-10T22:59:42.624Z,95511.45
2019-06-10T23:02:08.815Z,95511.45
2019-06-10T23:04:34.997Z,95488.50
2019-06-10T23:07:03.005Z,95496.30
2019-06-10T23:09:29.177Z,95496.39
2019-06-10T23:11:56.442Z,95498.07
2019-06-10T23:14:23.364Z,95481.67
2019-06-10T23:16:50.634Z,95474.93
2019-06-10T23:19:17.594Z,95491.63
2019-06-10T23:21:43.819Z,95493.30
2019-06-10T23:24:10.049Z,95473.58
2019-06-10T23:26:36.234Z,95487.16
2019-06-10T23:29:03.234Z,95511.22
2019-06-10T23:31:29.778Z,95505.88
2019-06-10T23:33:56.685Z,95504.22
2019-06-10T23:36:23.492Z,95508.55
2019-06-10T23:38:50.611Z,95517.14
2019-06-10T23:41:16.804Z,95512.84
2019-06-10T23:43:42.945Z,95527.03
2019-06-10T23:46:09.070Z,95513.59
2019-06-10T23:48:35.195Z,95504.14
2019-06-10T23:51:04.718Z,95504.14
2019-06-10T23:53:29.403Z,95510.44
2019-06-10T23:55:56.195Z,95519.28
2019-06-10T23:58:24.970Z,95485.78
